Time;durP1;ratioP1;P1;durP2;ratioP2;P2;SDS_P1;SDS_P2;PMS_P1;PMS_P2;Temp;Humidity;BMP_temperature;BMP_pressure;BME280_temperature;BME280_humidity;BME280_pressure;Samples;Min_cycle;Max_cycle;Signal;HPM_P1;HPM_P2
2023/09/13 00:01:27;;;;;;;7.47;4.10;;;;;;;20.64;75.21;100972.19;4989958;28;20030;-80
2023/09/13 00:03:52;;;;;;;13.07;4.60;;;;;;;20.61;75.28;100971.69;4990057;28;20338;-78
2023/09/13 00:06:18;;;;;;;36.50;6.70;;;;;;;20.55;75.33;100973.25;4947784;28;20039;-80
2023/09/13 00:08:43;;;;;;;9.00;4.90;;;;;;;20.57;75.80;100976.69;4934389;28;20087;-79
2023/09/13 00:11:09;;;;;;;16.05;5.43;;;;;;;20.61;75.76;100977.16;4931351;28;20520;-80
2023/09/13 00:13:35;;;;;;;20.17;6.00;;;;;;;20.61;75.70;100972.53;4941166;28;20559;-81
2023/09/13 00:16:02;;;;;;;14.90;5.38;;;;;;;20.62;75.69;100981.59;4933289;28;20036;-79
2023/09/13 00:18:27;;;;;;;8.68;5.22;;;;;;;20.58;75.71;100975.63;4939273;28;20078;-79
2023/09/13 00:20:53;;;;;;;13.82;5.40;;;;;;;20.59;75.79;100977.34;4946655;28;20082;-80
2023/09/13 00:23:19;;;;;;;12.23;4.25;;;;;;;20.57;75.60;100973.97;4946585;28;20046;-81
2023/09/13 00:25:44;;;;;;;7.68;3.85;;;;;;;20.55;75.65;100972.41;4929535;29;20040;-79
2023/09/13 00:28:10;;;;;;;13.15;4.47;;;;;;;20.52;75.66;100973.63;4901177;28;20190;-79
2023/09/13 00:30:35;;;;;;;8.57;4.53;;;;;;;20.42;76.03;100956.63;4931041;28;20054;-81
2023/09/13 00:33:01;;;;;;;5.82;4.80;;;;;;;20.45;76.10;100978.13;4947646;28;20038;-78
2023/09/13 00:35:26;;;;;;;12.07;4.13;;;;;;;20.42;76.35;100978.50;4945770;28;20028;-81
2023/09/13 00:37:52;;;;;;;6.85;4.68;;;;;;;20.41;76.57;100974.06;4972043;28;20042;-80
2023/09/13 00:40:17;;;;;;;10.38;5.57;;;;;;;20.36;76.47;100976.47;4989581;28;20026;-80
2023/09/13 00:42:44;;;;;;;10.25;5.25;;;;;;;20.35;76.92;100977.50;4989605;28;20031;-79
2023/09/13 00:45:10;;;;;;;12.30;5.50;;;;;;;20.37;77.10;100983.63;4989463;28;20117;-80
2023/09/13 00:47:36;;;;;;;10.27;5.30;;;;;;;20.23;77.03;100956.19;4989541;28;20173;-79
2023/09/13 00:50:03;;;;;;;10.82;5.20;;;;;;;20.34;77.17;100975.78;4989787;28;20041;-82
2023/09/13 00:52:29;;;;;;;8.73;5.53;;;;;;;20.38;77.34;100977.16;4993703;28;20157;-81
2023/09/13 00:54:55;;;;;;;14.68;5.50;;;;;;;20.41;77.23;100976.78;4991589;28;20109;-78
2023/09/13 00:57:22;;;;;;;6.70;4.60;;;;;;;20.40;77.05;100975.06;4990584;28;20030;-79
2023/09/13 00:59:48;;;;;;;8.65;4.75;;;;;;;20.30;76.82;100947.16;4990800;28;20104;-79
2023/09/13 01:02:13;;;;;;;12.57;5.40;;;;;;;20.36;76.81;100965.56;4989842;28;20120;-80
2023/09/13 01:04:39;;;;;;;14.43;5.28;;;;;;;20.43;76.67;100968.38;4993496;28;20062;-78
2023/09/13 01:07:08;;;;;;;9.32;5.78;;;;;;;20.44;76.67;100973.69;4997092;28;20103;-79
2023/09/13 01:09:34;;;;;;;10.40;5.22;;;;;;;20.44;76.70;100976.44;4992009;28;20113;-79
2023/09/13 01:12:00;;;;;;;10.38;5.68;;;;;;;20.46;76.78;100973.50;4989578;28;20177;-79
2023/09/13 01:14:26;;;;;;;10.68;5.32;;;;;;;20.42;76.61;100973.03;4989628;28;20045;-80
2023/09/13 01:17:03;;;;;;;14.18;4.80;;;;;;;20.41;76.81;100970.47;4989858;28;20030;-81
2023/09/13 01:19:34;;;;;;;11.77;5.63;;;;;;;20.40;76.64;100964.16;4989815;28;20023;-80
2023/09/13 01:22:18;;;;;;;8.70;5.22;;;;;;;20.36;76.80;100964.69;4989503;28;20099;-81
2023/09/13 01:25:05;;;;;;;10.13;5.75;;;;;;;20.31;77.29;100967.09;4989757;28;20121;-81
2023/09/13 01:28:09;;;;;;;10.20;6.10;;;;;;;20.10;77.23;100937.66;4989813;28;20070;-81
2023/09/13 01:30:37;;;;;;;13.50;6.07;;;;;;;20.21;77.47;100961.00;4989037;28;20034;-81
2023/09/13 01:33:03;;;;;;;12.77;6.28;;;;;;;20.21;77.53;100964.59;4990081;28;20141;-82
2023/09/13 01:35:28;;;;;;;16.33;7.97;;;;;;;20.09;78.05;100958.66;4939940;28;20457;-82
2023/09/13 01:37:54;;;;;;;12.13;5.10;;;;;;;20.13;77.84;100959.16;4989782;28;20061;-80
2023/09/13 01:40:22;;;;;;;20.17;5.18;;;;;;;20.17;78.01;100957.78;4989074;28;21483;-80
2023/09/13 01:42:49;;;;;;;12.82;4.78;;;;;;;20.04;77.54;100939.22;4989811;28;20113;-81
2023/09/13 01:45:15;;;;;;;13.45;6.30;;;;;;;20.15;77.76;100965.28;4989655;28;20037;-79
2023/09/13 01:47:45;;;;;;;8.70;4.53;;;;;;;20.17;77.61;100963.22;4971614;28;20054;-79
2023/09/13 01:50:13;;;;;;;9.50;4.95;;;;;;;20.12;77.51;100960.16;4989329;28;20034;-78
2023/09/13 01:52:39;;;;;;;25.08;5.68;;;;;;;20.14;77.76;100957.28;4989676;28;20089;-81
2023/09/13 01:55:06;;;;;;;11.18;5.00;;;;;;;20.17;77.95;100960.50;4989606;28;20034;-79
2023/09/13 01:57:32;;;;;;;17.70;5.75;;;;;;;20.01;77.63;100936.84;4989233;28;20398;-78
2023/09/13 01:59:57;;;;;;;9.80;4.38;;;;;;;20.12;77.53;100954.69;4938902;28;20042;-79
2023/09/13 02:02:23;;;;;;;11.82;4.40;;;;;;;20.09;77.70;100955.06;4989524;28;20081;-78
2023/09/13 02:04:49;;;;;;;16.63;5.30;;;;;;;20.03;77.79;100939.38;4989906;28;20034;-79
2023/09/13 02:07:16;;;;;;;13.68;4.20;;;;;;;20.03;77.94;100942.13;4988598;28;20638;-79
2023/09/13 02:09:42;;;;;;;7.85;4.60;;;;;;;20.17;77.72;100954.19;4988165;28;20030;-78
2023/09/13 02:12:12;;;;;;;11.25;4.95;;;;;;;20.16;77.66;100956.06;4989279;28;20501;-79
2023/09/13 02:14:38;;;;;;;7.75;4.72;;;;;;;20.14;78.05;100958.13;4988861;28;20062;-79
2023/09/13 02:17:04;;;;;;;8.27;5.00;;;;;;;20.11;77.57;100953.03;4989882;28;20030;-80
2023/09/13 02:19:29;;;;;;;14.10;5.07;;;;;;;20.04;77.73;100946.56;4988755;28;20446;-77
2023/09/13 02:21:55;;;;;;;12.27;5.35;;;;;;;20.09;77.76;100955.06;4988960;28;20034;-79
2023/09/13 02:24:20;;;;;;;13.02;5.63;;;;;;;20.03;78.15;100951.16;4989194;28;20079;-79
2023/09/13 02:26:45;;;;;;;11.43;5.05;;;;;;;20.02;78.29;100952.22;4988867;28;20097;-78
2023/09/13 02:29:11;;;;;;;10.38;5.63;;;;;;;20.03;78.16;100955.78;4989149;28;20026;-78
2023/09/13 02:31:38;;;;;;;15.70;6.18;;;;;;;20.00;78.38;100962.44;4988978;28;20572;-79
2023/09/13 02:34:04;;;;;;;8.00;4.80;;;;;;;20.01;78.32;100953.22;4990656;28;20026;-79
2023/09/13 02:36:30;;;;;;;10.82;6.22;;;;;;;20.01;78.53;100966.03;4975652;28;20515;-80
2023/09/13 02:38:58;;;;;;;32.40;7.53;;;;;;;19.95;78.50;100961.28;4992900;28;20057;-79
2023/09/13 02:41:23;;;;;;;21.88;6.18;;;;;;;20.00;78.44;100961.59;4993846;28;20034;-79
2023/09/13 02:43:49;;;;;;;19.35;7.28;;;;;;;19.88;78.47;100939.28;4995119;28;20093;-79
2023/09/13 02:46:14;;;;;;;29.67;6.57;;;;;;;19.95;78.50;100964.88;5017706;28;20054;-79
2023/09/13 02:48:40;;;;;;;22.05;6.43;;;;;;;19.96;78.87;100955.66;5016155;28;20042;-78
2023/09/13 02:51:11;;;;;;;9.65;5.30;;;;;;;19.98;78.55;100953.59;5018418;28;20161;-78
2023/09/13 02:53:36;;;;;;;17.58;6.68;;;;;;;19.99;78.51;100954.44;5012162;28;20026;-76
2023/09/13 02:56:06;;;;;;;15.65;5.65;;;;;;;19.83;78.63;100938.13;5016450;28;20552;-77
2023/09/13 02:58:31;;;;;;;13.60;6.20;;;;;;;19.98;78.67;100960.94;5005676;28;20399;-78
2023/09/13 03:00:58;;;;;;;12.05;5.07;;;;;;;19.99;78.12;100959.91;4993820;28;20026;-78
2023/09/13 03:03:24;;;;;;;14.25;5.70;;;;;;;19.89;78.51;100951.94;4992898;28;20477;-79
2023/09/13 03:05:49;;;;;;;22.83;6.65;;;;;;;19.93;78.68;100956.00;4992308;28;20107;-80
2023/09/13 03:08:15;;;;;;;10.43;6.05;;;;;;;19.82;78.62;100937.28;4992022;28;20172;-78
2023/09/13 03:10:40;;;;;;;18.45;6.60;;;;;;;19.90;78.74;100952.78;4992376;28;20076;-78
2023/09/13 03:13:05;;;;;;;17.92;6.68;;;;;;;19.86;78.75;100949.56;4992242;28;20115;-80
2023/09/13 03:15:34;;;;;;;17.23;6.45;;;;;;;19.90;78.66;100953.63;4992158;28;20030;-80
2023/09/13 03:18:00;;;;;;;21.00;6.93;;;;;;;19.95;78.77;100962.13;4991789;28;20030;-78
2023/09/13 03:20:26;;;;;;;16.88;6.82;;;;;;;19.94;78.97;100965.88;4991485;28;20027;-81
2023/09/13 03:22:53;;;;;;;30.10;7.38;;;;;;;19.94;78.46;100962.31;4991583;28;20037;-78
2023/09/13 03:25:19;;;;;;;17.50;6.38;;;;;;;19.96;78.61;100969.31;4992584;28;20493;-80
2023/09/13 03:27:44;;;;;;;96.28;11.35;;;;;;;19.97;78.62;100979.19;4974618;28;20117;-78
2023/09/13 03:30:10;;;;;;;33.70;7.22;;;;;;;19.92;78.78;100961.63;4992169;28;20042;-79
2023/09/13 03:32:35;;;;;;;29.00;7.57;;;;;;;19.96;78.73;100971.19;4992312;28;20092;-79
2023/09/13 03:35:01;;;;;;;29.80;7.05;;;;;;;19.94;79.07;100968.63;4992363;28;20498;-81
2023/09/13 03:37:26;;;;;;;40.35;9.63;;;;;;;19.95;79.27;100970.31;4991695;28;20041;-80
2023/09/13 03:39:51;;;;;;;33.28;8.05;;;;;;;19.99;78.96;100973.56;4992189;28;20034;-79
2023/09/13 03:42:17;;;;;;;70.95;12.95;;;;;;;19.93;78.89;100966.94;4974048;28;20191;-80
2023/09/13 03:44:43;;;;;;;29.42;8.40;;;;;;;19.97;78.99;100972.88;4991009;28;20149;-80
2023/09/13 03:47:08;;;;;;;25.40;8.07;;;;;;;19.91;79.12;100968.13;4990629;28;20047;-78
2023/09/13 03:49:33;;;;;;;47.08;10.13;;;;;;;19.84;79.01;100956.22;4990847;28;20033;-79
2023/09/13 03:52:01;;;;;;;41.67;8.10;;;;;;;19.94;79.08;100982.28;4991338;28;20030;-79
2023/09/13 03:54:26;;;;;;;22.23;8.10;;;;;;;19.95;79.04;100969.47;4991155;28;20022;-78
2023/09/13 03:56:52;;;;;;;39.20;10.32;;;;;;;19.93;79.09;100977.00;4992611;28;20030;-78
2023/09/13 03:59:17;;;;;;;70.95;15.93;;;;;;;19.94;79.32;100978.69;4991517;28;20142;-80
2023/09/13 04:01:44;;;;;;;48.47;10.27;;;;;;;19.91;79.60;100968.97;4990631;28;20023;-80
2023/09/13 04:04:09;;;;;;;47.13;12.68;;;;;;;19.97;79.51;100983.78;4990877;28;20113;-79
2023/09/13 04:06:35;;;;;;;92.72;14.25;;;;;;;19.96;79.46;100973.91;4991306;28;20228;-88
2023/09/13 04:09:00;;;;;;;44.15;10.93;;;;;;;20.00;79.58;100983.44;4952367;28;20042;-83
2023/09/13 04:11:28;;;;;;;46.72;9.40;;;;;;;20.02;79.31;100970.47;4993796;28;20028;-86
2023/09/13 04:13:54;;;;;;;45.88;10.85;;;;;;;20.07;79.37;100979.84;4974550;28;20391;-86
2023/09/13 04:16:19;;;;;;;57.38;11.10;;;;;;;20.08;79.21;100972.50;4991644;28;20041;-79
2023/09/13 04:18:45;;;;;;;44.80;10.10;;;;;;;20.08;78.98;100975.22;4990552;28;20034;-79
2023/09/13 04:21:10;;;;;;;38.05;8.85;;;;;;;20.18;79.33;100992.25;4991044;28;20104;-87
2023/09/13 04:23:36;;;;;;;63.83;10.52;;;;;;;20.18;79.05;100989.53;4990700;28;20038;-86
2023/09/13 04:26:01;;;;;;;73.60;12.68;;;;;;;20.06;79.12;100967.19;4990951;28;20419;-85
2023/09/13 04:28:27;;;;;;;49.60;10.45;;;;;;;20.26;78.96;100984.03;4975181;28;20502;-89
2023/09/13 04:30:52;;;;;;;43.20;11.60;;;;;;;20.14;78.85;100958.13;4973326;28;20038;-86
2023/09/13 04:33:20;;;;;;;37.15;9.77;;;;;;;20.35;78.76;100982.13;4990706;28;20038;-85
2023/09/13 04:35:45;;;;;;;80.60;13.48;;;;;;;20.38;78.79;100985.34;4990761;28;20038;-83
2023/09/13 04:38:10;;;;;;;88.75;12.60;;;;;;;20.46;78.65;100985.28;4989170;28;20522;-80
2023/09/13 04:40:41;;;;;;;71.43;12.75;;;;;;;20.51;78.47;100982.88;4991417;28;20443;-80
2023/09/13 04:43:07;;;;;;;66.68;15.68;;;;;;;20.57;78.42;100992.22;4994242;28;20030;-80
2023/09/13 04:45:35;;;;;;;77.68;15.88;;;;;;;20.64;77.98;100987.72;4989983;28;20185;-80
2023/09/13 04:48:00;;;;;;;68.03;14.45;;;;;;;20.65;78.15;100978.50;4989695;28;20030;-78
2023/09/13 04:50:27;;;;;;;98.32;15.63;;;;;;;20.74;77.77;100993.81;4989278;28;20422;-81
2023/09/13 04:52:52;;;;;;;86.57;13.95;;;;;;;20.72;77.70;100979.50;4958117;28;20073;-87
2023/09/13 04:55:19;;;;;;;93.72;16.00;;;;;;;20.85;77.54;100990.69;4992349;28;20034;-90
2023/09/13 04:57:44;;;;;;;75.72;11.38;;;;;;;20.95;77.42;100990.41;4991186;28;20034;-85
2023/09/13 05:00:11;;;;;;;86.70;15.02;;;;;;;21.02;77.24;100989.50;4992498;28;20164;-84
2023/09/13 05:02:38;;;;;;;66.75;13.32;;;;;;;21.11;76.99;100990.31;4978825;28;20379;-90
2023/09/13 05:05:04;;;;;;;80.43;14.05;;;;;;;21.09;76.62;100970.50;4973592;28;20030;-80
2023/09/13 05:07:29;;;;;;;89.05;15.13;;;;;;;21.30;76.61;100995.28;4990232;28;20065;-81
2023/09/13 05:09:55;;;;;;;86.93;14.73;;;;;;;21.39;76.50;100996.91;4990337;28;20133;-84
2023/09/13 05:12:20;;;;;;;73.15;13.65;;;;;;;21.48;76.08;100993.03;4990333;28;20040;-90
2023/09/13 05:14:47;;;;;;;108.07;16.55;;;;;;;21.61;75.58;100989.66;4973150;28;20033;-80
2023/09/13 05:17:12;;;;;;;80.93;13.90;;;;;;;21.71;74.49;100999.28;4990158;28;20056;-79
2023/09/13 05:19:37;;;;;;;26.77;8.75;;;;;;;21.80;73.38;100996.47;4990296;28;20022;-82
2023/09/13 05:22:03;;;;;;;26.88;7.35;;;;;;;21.81;73.55;100995.41;4992046;28;20470;-84
2023/09/13 05:24:28;;;;;;;77.45;13.70;;;;;;;21.95;72.97;101000.94;4990380;28;20026;-83
2023/09/13 05:26:54;;;;;;;47.10;8.57;;;;;;;21.92;72.27;100982.16;4990373;28;20022;-83
2023/09/13 05:29:19;;;;;;;31.58;8.60;;;;;;;22.07;71.83;100993.94;4990683;28;20030;-81
2023/09/13 05:31:45;;;;;;;25.63;9.13;;;;;;;22.23;70.98;101012.91;4990290;28;20034;-83
2023/09/13 05:34:10;;;;;;;31.80;7.60;;;;;;;22.35;69.92;101005.06;4939428;28;20058;-83
2023/09/13 05:36:36;;;;;;;56.13;15.90;;;;;;;22.01;69.34;100939.06;4989538;28;20025;-82
2023/09/13 05:39:03;;;;;;;36.28;9.60;;;;;;;22.47;69.12;101006.25;4948214;28;20044;-85
2023/09/13 05:41:28;;;;;;;44.60;9.50;;;;;;;22.45;68.83;100991.03;4948315;28;20522;-83
2023/09/13 05:43:54;;;;;;;21.23;9.02;;;;;;;22.67;67.73;101015.59;4948604;28;20050;-84
2023/09/13 05:46:19;;;;;;;38.28;8.35;;;;;;;22.77;67.21;101013.38;4948018;28;20066;-84
2023/09/13 05:48:45;;;;;;;31.55;8.95;;;;;;;22.85;66.93;101012.41;4948898;28;20480;-82
2023/09/13 05:51:10;;;;;;;27.98;6.15;;;;;;;22.93;66.55;101017.78;4928125;28;20113;-83
2023/09/13 05:53:36;;;;;;;13.27;5.43;;;;;;;22.92;66.15;101010.59;4947500;28;20086;-83
2023/09/13 05:56:03;;;;;;;37.85;10.95;;;;;;;23.02;65.14;101013.00;4947805;28;20031;-84
2023/09/13 05:58:29;;;;;;;17.45;5.93;;;;;;;23.01;65.53;101025.88;4948162;28;20133;-84
2023/09/13 06:00:55;;;;;;;20.13;6.38;;;;;;;23.11;65.17;101014.56;4948596;28;20468;-85
2023/09/13 06:03:21;;;;;;;14.45;5.53;;;;;;;23.18;64.51;101009.97;4948105;28;20031;-82
2023/09/13 06:05:50;;;;;;;11.05;5.20;;;;;;;23.21;64.22;101013.16;4947937;28;20047;-84
2023/09/13 06:08:19;;;;;;;26.33;6.30;;;;;;;23.33;63.69;101016.25;4950344;28;20031;-85
2023/09/13 06:10:46;;;;;;;24.75;6.93;;;;;;;23.40;63.56;101017.16;4974885;28;20454;-85
2023/09/13 06:13:11;;;;;;;23.25;6.82;;;;;;;23.49;63.78;101017.88;4994028;28;20048;-84
2023/09/13 06:15:37;;;;;;;15.77;7.20;;;;;;;23.54;63.21;101010.75;4992936;28;20482;-85
2023/09/13 06:18:03;;;;;;;24.95;11.13;;;;;;;23.56;62.69;101002.28;4990500;28;20022;-84
2023/09/13 06:20:29;;;;;;;23.80;5.90;;;;;;;23.68;62.58;101018.03;4993258;28;20029;-85
2023/09/13 06:22:54;;;;;;;12.57;5.18;;;;;;;23.74;62.51;101011.72;4993366;28;20049;-84
2023/09/13 06:25:20;;;;;;;18.45;6.15;;;;;;;23.85;62.54;101024.91;4993400;28;20691;-84
2023/09/13 06:27:45;;;;;;;11.57;5.30;;;;;;;23.76;62.89;101020.59;4995051;28;20085;-86
2023/09/13 06:30:13;;;;;;;28.73;5.75;;;;;;;23.75;62.96;101010.69;5001390;28;20085;-86
2023/09/13 06:32:39;;;;;;;15.48;4.80;;;;;;;23.79;62.39;101014.72;4994197;28;20490;-85
2023/09/13 06:35:05;;;;;;;34.85;6.95;;;;;;;23.89;62.30;101022.59;4974587;28;20045;-83
2023/09/13 06:37:30;;;;;;;10.40;4.55;;;;;;;23.92;62.45;101018.59;4976150;28;20030;-85
2023/09/13 06:39:56;;;;;;;16.95;5.13;;;;;;;23.90;62.13;101026.19;4986230;28;20041;-84
2023/09/13 06:42:21;;;;;;;18.58;11.18;;;;;;;24.01;62.15;101036.63;4992393;28;20037;-84
2023/09/13 06:44:46;;;;;;;28.02;10.18;;;;;;;24.10;61.64;101032.66;4991834;28;20034;-83
2023/09/13 06:47:12;;;;;;;16.92;4.78;;;;;;;24.06;61.65;101042.38;4984144;28;20050;-83
2023/09/13 06:49:38;;;;;;;17.45;5.55;;;;;;;24.03;61.65;101045.53;4993466;28;20057;-83
2023/09/13 06:52:03;;;;;;;17.92;6.00;;;;;;;23.93;62.35;101045.03;4992743;28;20514;-83
2023/09/13 06:54:29;;;;;;;14.93;4.95;;;;;;;23.85;62.67;101035.88;4992396;28;20053;-84
2023/09/13 06:56:54;;;;;;;8.48;4.90;;;;;;;23.97;63.64;101040.84;4993310;28;20037;-85
2023/09/13 06:59:20;;;;;;;9.32;4.80;;;;;;;24.08;62.37;101040.25;4993103;28;20057;-84
2023/09/13 07:01:46;;;;;;;26.02;5.38;;;;;;;24.02;62.04;101024.56;4992958;28;20034;-84
2023/09/13 07:04:13;;;;;;;15.77;6.28;;;;;;;24.13;62.06;101032.28;4984079;28;20089;-83
2023/09/13 07:06:39;;;;;;;21.98;4.78;;;;;;;24.29;62.28;101038.28;4987346;28;20034;-83
2023/09/13 07:09:04;;;;;;;6.72;4.15;;;;;;;24.37;62.09;101046.34;4992576;28;20773;-84
2023/09/13 07:11:29;;;;;;;15.18;4.93;;;;;;;24.30;61.20;101028.16;4992890;28;20042;-83
2023/09/13 07:13:55;;;;;;;31.52;6.15;;;;;;;24.28;61.85;101031.09;4988213;28;20034;-83
2023/09/13 07:16:21;;;;;;;10.77;5.18;;;;;;;24.27;61.73;101023.91;4992526;28;20067;-85
2023/09/13 07:18:46;;;;;;;10.18;5.07;;;;;;;24.30;62.27;101053.75;4973326;28;20159;-86
2023/09/13 07:21:12;;;;;;;12.10;7.00;;;;;;;24.29;62.83;101048.44;4992772;28;20078;-84
2023/09/13 07:23:37;;;;;;;22.55;5.38;;;;;;;24.30;63.18;101051.00;4974793;28;20038;-84
2023/09/13 07:26:02;;;;;;;12.82;5.50;;;;;;;24.36;62.76;101054.84;4976036;28;20023;-84
2023/09/13 07:28:28;;;;;;;13.95;5.03;;;;;;;24.36;62.40;101052.09;4992353;28;20144;-86
2023/09/13 07:30:57;;;;;;;12.40;4.95;;;;;;;24.24;62.04;101028.97;4989782;28;20035;-84
2023/09/13 07:33:22;;;;;;;13.57;4.55;;;;;;;24.36;62.09;101057.56;4994274;28;20023;-83
2023/09/13 07:35:48;;;;;;;16.15;5.13;;;;;;;24.41;61.99;101051.44;5015160;28;20036;-83
2023/09/13 07:38:14;;;;;;;13.85;4.43;;;;;;;24.40;61.88;101056.13;5017250;28;20054;-81
2023/09/13 07:40:40;;;;;;;12.25;4.78;;;;;;;24.46;61.83;101060.81;4993822;28;20094;-82
2023/09/13 07:43:07;;;;;;;16.75;4.97;;;;;;;24.44;61.67;101057.41;5011855;28;20065;-81
2023/09/13 07:45:33;;;;;;;11.45;4.75;;;;;;;24.54;61.56;101057.88;5018886;28;20030;-80
2023/09/13 07:48:00;;;;;;;19.35;5.43;;;;;;;24.62;61.24;101068.69;5017941;28;20038;-85
2023/09/13 07:50:29;;;;;;;10.73;5.00;;;;;;;24.70;60.81;101067.66;5000309;28;20022;-87
2023/09/13 07:52:55;;;;;;;18.85;4.90;;;;;;;24.71;60.80;101064.69;4995351;28;20064;-87
2023/09/13 07:55:21;;;;;;;22.15;4.72;;;;;;;24.71;60.44;101072.09;4993235;28;20210;-86
2023/09/13 07:57:47;;;;;;;6.18;4.00;;;;;;;24.72;60.11;101060.91;4992111;28;20625;-85
2023/09/13 08:00:12;;;;;;;16.77;5.65;;;;;;;24.78;60.26;101071.09;4992130;28;20045;-85
2023/09/13 08:02:38;;;;;;;18.63;4.82;;;;;;;24.75;59.88;101065.13;4992332;28;20453;-85
2023/09/13 08:05:04;;;;;;;7.93;4.22;;;;;;;24.61;60.04;101067.00;4977458;28;20049;-86
2023/09/13 08:07:29;;;;;;;9.60;4.25;;;;;;;24.40;60.83;101034.13;4992191;28;20076;-85
2023/09/13 08:09:55;;;;;;;15.07;4.15;;;;;;;24.53;60.74;101050.66;4992199;28;20089;-87
2023/09/13 08:12:22;;;;;;;10.43;4.80;;;;;;;24.72;61.12;101060.91;4991845;28;20037;-84
2023/09/13 08:14:47;;;;;;;19.55;5.32;;;;;;;24.62;60.30;101032.91;4992297;28;20034;-86
2023/09/13 08:17:12;;;;;;;9.43;4.80;;;;;;;24.84;60.54;101064.78;4994494;28;20041;-87
2023/09/13 08:19:38;;;;;;;9.45;3.65;;;;;;;24.67;59.17;101051.56;4996731;28;20022;-86
2023/09/13 08:22:04;;;;;;;10.32;4.47;;;;;;;24.67;61.15;101044.19;4992316;28;20065;-84
2023/09/13 08:24:31;;;;;;;13.10;5.20;;;;;;;24.75;61.16;101057.75;4991470;28;20085;-84
2023/09/13 08:26:57;;;;;;;5.53;3.72;;;;;;;24.67;61.23;101057.94;4991812;28;20065;-85
2023/09/13 08:29:22;;;;;;;7.43;4.68;;;;;;;24.77;61.34;101058.38;4989714;28;20078;-84
2023/09/13 08:31:48;;;;;;;6.05;3.80;;;;;;;24.61;61.81;101039.50;4987467;28;20023;-85
2023/09/13 08:34:13;;;;;;;26.85;7.15;;;;;;;24.71;61.49;101030.84;4991540;28;20050;-83
2023/09/13 08:36:39;;;;;;;9.90;4.43;;;;;;;24.76;61.47;101029.19;4991606;28;20022;-83
2023/09/13 08:39:05;;;;;;;11.43;5.25;;;;;;;24.98;61.27;101040.91;4990947;28;20493;-86
2023/09/13 08:41:30;;;;;;;13.23;4.40;;;;;;;25.00;59.54;101044.28;4991824;28;20089;-86
2023/09/13 08:43:57;;;;;;;18.63;4.75;;;;;;;24.92;57.99;101049.16;4990945;28;20034;-88
2023/09/13 08:46:24;;;;;;;12.65;4.25;;;;;;;24.96;57.61;101051.25;4934433;29;20086;-82
2023/09/13 08:48:51;;;;;;;14.02;4.40;;;;;;;24.92;58.63;101050.81;4945284;29;20046;-83
2023/09/13 08:51:18;;;;;;;17.27;4.15;;;;;;;24.98;57.58;101040.06;4950125;29;20043;-83
2023/09/13 08:53:45;;;;;;;12.60;4.45;;;;;;;24.80;57.65;101013.94;4948740;29;20031;-82
2023/09/13 08:56:11;;;;;;;7.38;3.83;;;;;;;24.96;57.75;101029.25;4932025;29;20086;-84
2023/09/13 08:58:37;;;;;;;11.13;4.20;;;;;;;24.89;58.43;101023.72;4948720;29;20109;-79
2023/09/13 09:01:06;;;;;;;11.52;3.83;;;;;;;24.85;59.55;101014.22;4949311;29;20523;-80
2023/09/13 09:03:34;;;;;;;6.00;3.72;;;;;;;25.00;59.53;101030.53;4949356;29;20039;-86
2023/09/13 09:06:04;;;;;;;12.50;4.20;;;;;;;25.05;59.38;101024.38;4951105;28;20178;-80
2023/09/13 09:08:30;;;;;;;10.13;4.13;;;;;;;25.00;58.91;101007.66;4915358;29;20098;-80
2023/09/13 09:10:59;;;;;;;4.18;3.33;;;;;;;25.06;56.60;101026.09;4954268;28;20023;-77
2023/09/13 09:13:25;;;;;;;7.85;3.33;;;;;;;25.18;55.65;101044.53;4959551;28;20122;-79
2023/09/13 09:15:52;;;;;;;5.40;3.58;;;;;;;25.27;55.90;101047.94;4969772;28;20030;-77
2023/09/13 09:18:19;;;;;;;16.63;4.53;;;;;;;25.42;56.02;101035.66;5001702;28;20414;-80
2023/09/13 09:20:45;;;;;;;10.00;4.70;;;;;;;25.50;56.25;101034.63;5011448;28;20747;-79
2023/09/13 09:23:11;;;;;;;6.30;4.50;;;;;;;25.57;56.36;101018.06;5011453;28;20041;-79
2023/09/13 09:25:44;;;;;;;11.02;4.35;;;;;;;25.74;56.35;101042.25;5012218;28;20106;-81
2023/09/13 09:28:10;;;;;;;8.05;3.13;;;;;;;25.65;56.55;101029.75;5010517;28;20096;-79
2023/09/13 09:30:36;;;;;;;7.05;3.67;;;;;;;25.67;56.29;101038.66;5009978;28;20084;-80
2023/09/13 09:33:09;;;;;;;18.02;8.63;;;;;;;25.77;56.23;101032.69;5013074;28;20053;-80
2023/09/13 09:35:36;;;;;;;6.57;3.22;;;;;;;25.81;55.64;101040.31;5011518;28;20025;-81
2023/09/13 09:38:06;;;;;;;11.40;4.10;;;;;;;25.74;55.84;101017.44;5011848;28;20544;-81
2023/09/13 09:40:38;;;;;;;6.72;3.72;;;;;;;25.70;54.61;101013.41;4993236;28;20041;-84
2023/09/13 09:43:03;;;;;;;8.05;3.92;;;;;;;25.18;53.88;100961.09;5010219;28;20065;-82
2023/09/13 09:45:29;;;;;;;15.00;4.25;;;;;;;25.57;54.92;101015.31;5010465;28;20070;-83
2023/09/13 09:47:55;;;;;;;22.48;4.88;;;;;;;25.60;55.22;101031.44;5009480;28;20461;-80
2023/09/13 09:50:21;;;;;;;4.28;3.28;;;;;;;25.56;55.68;101025.53;5010026;28;20030;-82
2023/09/13 09:52:50;;;;;;;7.82;4.22;;;;;;;25.51;55.20;101033.56;5004528;28;20022;-81
2023/09/13 09:55:21;;;;;;;19.10;5.35;;;;;;;25.59;54.62;101030.59;4987000;28;20045;-81
2023/09/13 09:57:48;;;;;;;8.15;3.85;;;;;;;25.76;53.97;101036.50;4990568;28;20054;-80
2023/09/13 10:00:14;;;;;;;5.85;3.45;;;;;;;25.73;52.65;101032.28;4996051;28;20092;-79
2023/09/13 10:02:40;;;;;;;6.53;3.90;;;;;;;25.77;52.04;101038.22;4998850;28;20026;-83
2023/09/13 10:05:06;;;;;;;8.57;4.28;;;;;;;25.91;53.23;101035.22;4994934;28;20109;-81
2023/09/13 10:07:41;;;;;;;8.93;3.22;;;;;;;25.83;53.29;101029.94;4989428;28;20034;-79
2023/09/13 10:10:09;;;;;;;7.15;3.47;;;;;;;25.69;53.24;101025.50;4991862;28;20128;-81
2023/09/13 10:12:44;;;;;;;5.30;3.42;;;;;;;25.79;53.60;101031.41;4990768;28;20062;-81
2023/09/13 10:15:10;;;;;;;10.75;3.80;;;;;;;25.92;53.95;101036.91;4989273;28;20045;-79
2023/09/13 10:17:38;;;;;;;16.77;3.67;;;;;;;25.88;54.14;101030.13;4992265;28;20034;-82
2023/09/13 10:20:06;;;;;;;7.55;3.65;;;;;;;25.90;53.64;101027.19;4994220;28;20046;-83
2023/09/13 10:22:35;;;;;;;5.22;3.15;;;;;;;25.88;53.66;101035.66;4992034;28;20041;-82
2023/09/13 10:25:06;;;;;;;11.52;3.88;;;;;;;25.80;54.07;101027.63;4990921;28;20033;-83
2023/09/13 10:27:34;;;;;;;5.50;3.83;;;;;;;25.83;53.89;101027.19;4992957;28;20539;-84
2023/09/13 10:30:04;;;;;;;6.00;3.80;;;;;;;25.85;54.63;101036.06;4977763;28;20693;-82
2023/09/13 10:32:43;;;;;;;5.13;3.50;;;;;;;26.00;54.71;101030.31;4967218;28;20550;-86
2023/09/13 10:35:11;;;;;;;7.88;2.85;;;;;;;26.03;54.67;101027.13;4998998;28;20102;-85
2023/09/13 10:38:11;;;;;;;8.32;3.67;;;;;;;26.08;54.60;101035.63;4988815;28;20113;-81
2023/09/13 10:40:39;;;;;;;5.70;3.25;;;;;;;26.14;54.15;101037.50;4910695;29;20092;-82
2023/09/13 10:43:06;;;;;;;13.73;3.70;;;;;;;26.20;53.19;101027.56;4910537;29;20059;-82
2023/09/13 10:45:31;;;;;;;22.23;4.00;;;;;;;26.25;53.07;101031.34;4854163;29;20045;-81
2023/09/13 10:47:59;;;;;;;7.90;3.80;;;;;;;26.36;53.63;101038.13;4853399;29;20041;-84
2023/09/13 10:50:26;;;;;;;21.45;3.90;;;;;;;26.50;53.70;101031.47;4856915;29;20049;-80
2023/09/13 10:52:53;;;;;;;17.88;4.72;;;;;;;26.45;53.66;101025.75;4854235;29;20026;-83
2023/09/13 10:55:19;;;;;;;6.18;3.20;;;;;;;26.45;52.84;101028.53;4844369;29;20038;-79
2023/09/13 10:57:45;;;;;;;9.27;3.60;;;;;;;26.44;53.06;101029.56;4853893;29;20060;-81
2023/09/13 11:00:11;;;;;;;6.97;3.17;;;;;;;26.39;53.08;101029.41;4857689;29;20073;-80
2023/09/13 11:02:41;;;;;;;5.97;2.92;;;;;;;26.36;52.96;101025.13;4848444;29;20521;-79
2023/09/13 11:05:08;;;;;;;9.00;3.35;;;;;;;26.36;53.22;101010.53;4855384;29;20045;-83
2023/09/13 11:07:40;;;;;;;25.98;4.45;;;;;;;26.37;53.85;101017.72;4858535;29;20521;-79
2023/09/13 11:10:11;;;;;;;8.95;3.33;;;;;;;26.18;53.57;100966.22;4852583;29;20068;-79
2023/09/13 11:12:36;;;;;;;5.00;2.90;;;;;;;26.52;54.11;101015.53;4856356;29;20446;-80
2023/09/13 11:15:46;;;;;;;11.07;2.95;;;;;;;26.66;53.54;101008.88;4858910;29;20038;-80